메인 페이지
METAR-TAF:

METAR-TAF

공항 :

하노이, 베트남

노이바이 국제공항

위도: 21-01N, 경도: 105-48E, 고도: 6m

현재 날씨관측

예보는 22분 전, 00:30시(UTC)에 발표되었습니다.
7kt
온도 18°C
습도 94%
기압 1015 hPa
시정: 4700m
고도 600ft 상공 구름 조금
고도 4000ft 상공 구름 많음
박무

METAR: VVNB 180030Z 10007KT 4700 BR FEW006 BKN040 18/17 Q1015 NOSIG

시각: 07:52 (00:52 UTC)

예보

예보는 1 시간 52분 전, 23:00시(UTC)에 발표되었습니다.
예보 대상 시간: 18일 00시부터 18일 24시까지 (UTC)
동남동4kt
시정: 4000m
고도 600ft 상공 구름 조금
고도 4000ft 상공 구름 많음
박무
전환 중
18일 01시부터 18일 02시까지 (UTC)
시정: 6000m
전환 중
18일 14시부터 18일 16시까지 (UTC)
시정: 4000m
박무

TAF: VVNB 172300Z 1800/1824 12004KT 4000 BR FEW006 BKN040 BECMG 1801/1802 6000 NSW BECMG 1814/1816 4000 BR

4,000개 이상의 공항 관측 자료 및 예보 (METAR 및 TAF 보고).

지도상에서 검색 가능한 기상관측소가 노란 점과 빨간 점으로 표시되어 있습니다.

기상관측소 명을 보려면 표시 위로 마우스를 이동하세요.

날씨 관측과 예보를 보려면 클릭하세요.

지도 변경 : 확대하려면 엑스 표시가 있는 녹색 버튼, 축소하려면 빼기 표시가 있는 녹색 버튼, 다음 페이지의 지도를 보려면 녹색 화살표를 클릭하세요.


METAR-TAF: